CheckWX is a tool to help pilots better visualize weather data.  It is not intended as a substitute for an official pre-flight weather briefing.

05:12:20 UTC

FMMT METAR
Toamasina Airport
Madagascar
Current

12 mins ago

FMMT 240500Z 36004KT 330V030 9999 FEW017 27/24 Q1010 NOSIG
Observed
Feb-24 @ 05:00 UTC
Wind
  • 360° at 4 KTS
Visibility
10,000+ meters
Flight Rules
VFR
Cloud Levels
  • Few at 1,700' AGL
Temperature
27°C / 81°F
Dewpoint
24°C / 75°F
Humidity
84%
Altimeter
29.82" Hg
Pressure
1009.92 hPa
Previous

1 hour ago

FMMT 240400Z VRB02KT 9999 FEW017 25/24 Q1010 NOSIG
Observed
Feb-24 @ 04:00 UTC
Wind
  • Variable at 2 KTS
Visibility
10,000+ meters
Flight Rules
VFR
Cloud Levels
  • Few at 1,700' AGL
Temperature
25°C / 77°F
Dewpoint
24°C / 75°F
Humidity
94%
Altimeter
29.82" Hg
Pressure
1009.92 hPa
Previous

2 hours ago

FMMT 240300Z 25002KT 9999 VCSH FEW017 SCT033 23/23 Q1009 NOSIG
Observed
Feb-24 @ 03:00 UTC
Wind
  • 250° at 2 KTS
Visibility
10,000+ meters
Flight Rules
VFR
Cloud Levels
  • Few at 1,700' AGL
  • Scattered at 3,300' AGL
Temperature
23°C / 73°F
Dewpoint
23°C / 73°F
Humidity
100%
Altimeter
29.79" Hg
Pressure
1008.92 hPa